Latest Weather Observations for Arlington Reef

IDQ60801

Issued at 8:02 pm EST Friday 29 April 2016 (issued every 30 minutes, with the page automatically refreshed every 10 minutes)

About weather observations | Map of weather stations | Latest weather observations for QLD | Other Formats
Station Details ID: 200879 Name: ARLINGTON REEF Lat: -16.72 Lon: 146.11 Height: 0.0 m
Data from the previous 72 hours. | See also: Recent months at Arlington Reef
Date/Time
EST
Temp
°C
App
Temp
°C
Dew
Point
Rel
Hum
%
Delta-T
°C
Wind Press
QNH
hPa
Press
MSL
hPa
Rain
since 9 am
mm
Dir
 
Spd
km/h
Gust
km/h
Spd
kts
Gust
kts
29/08:00pm - - - - - SE 33 39 18 21 1014.9 1014.9 -
29/07:30pm - - - - - SE 32 39 17 21 1014.6 1014.6 -
29/07:00pm - - - - - SE 35 44 19 24 1014.3 1014.3 -
29/06:30pm - - - - - SE 33 39 18 21 1013.8 1013.8 -
29/06:00pm - - - - - SE 33 37 18 20 1013.6 1013.6 -
29/05:30pm - - - - - SE 32 35 17 19 1013.3 1013.3 -
29/05:00pm - - - - - SE 30 35 16 19 1013.1 1013.1 -
29/04:30pm - - - - - ESE 32 35 17 19 1012.9 1012.9 -
29/04:00pm - - - - - ESE 30 33 16 18 1012.8 1012.8 -
29/03:30pm - - - - - SE 30 32 16 17 1012.5 1012.5 -
29/03:00pm - - - - - ESE 28 32 15 17 1012.6 1012.6 -
29/02:30pm - - - - - SE 30 35 16 19 1012.7 1012.7 -
29/02:00pm - - - - - ESE 28 32 15 17 1012.9 1012.9 -
29/01:30pm - - - - - ESE 28 32 15 17 1013.1 1013.1 -
29/01:00pm - - - - - ESE 28 32 15 17 1013.8 1013.8 -
29/12:30pm - - - - - ESE 30 33 16 18 1014.1 1014.1 -
29/12:00pm - - - - - ESE 28 33 15 18 1014.5 1014.5 -
29/11:30am - - - - - ESE 30 35 16 19 1014.9 1014.9 -
29/11:00am - - - - - ESE 33 37 18 20 1015.2 1015.2 -
29/10:30am - - - - - ESE 33 39 18 21 1015.3 1015.3 -
29/10:00am - - - - - ESE 33 39 18 21 1015.5 1015.5 -
29/09:30am - - - - - ESE 32 35 17 19 1015.4 1015.4 -
29/09:00am - - - - - SE 30 39 16 21 1015.2 1015.2 -
29/08:30am - - - - - SE 33 46 18 25 1015.0 1015.0 -
29/08:00am - - - - - SSE 30 35 16 19 1014.8 1014.8 -
29/07:30am - - - - - SSE 28 32 15 17 1014.5 1014.5 -
29/07:00am - - - - - SE 28 32 15 17 1014.4 1014.4 -
29/06:30am - - - - - SE 30 35 16 19 1013.9 1013.9 -
29/06:00am - - - - - SE 30 35 16 19 1013.6 1013.6 -
29/05:30am - - - - - SE 33 39 18 21 1013.4 1013.4 -
29/05:00am - - - - - SE 32 37 17 20 1013.3 1013.3 -
29/04:30am - - - - - SE 37 43 20 23 1013.1 1013.1 -
29/04:00am - - - - - SE 37 41 20 22 1013.0 1013.0 -
29/03:30am - - - - - SE 33 39 18 21 1012.9 1012.9 -
29/03:00am - - - - - SE 35 41 19 22 1013.1 1013.1 -
29/02:30am - - - - - SE 33 39 18 21 1013.4 1013.4 -
29/02:00am - - - - - SE 33 41 18 22 1013.7 1013.7 -
29/01:30am - - - - - SE 32 37 17 20 1013.9 1013.9 -
29/01:00am - - - - - SE 35 41 19 22 1014.1 1014.1 -
29/12:30am - - - - - SE 35 39 19 21 1014.3 1014.3 -
29/12:00am - - - - - SE 35 41 19 22 1014.8 1014.8 -
 
Date/Time
EST
Temp
°C
App
Temp
°C
Dew
Point
Rel
Hum
%
Delta-T
°C
Wind Press
QNH
hPa
Press
MSL
hPa
Rain
since 9 am
mm
Dir
 
Spd
km/h
Gust
km/h
Spd
kts
Gust
kts
28/11:30pm - - - - - SE 35 41 19 22 1015.1 1015.1 -
28/11:00pm - - - - - SE 35 41 19 22 1015.2 1015.2 -
28/10:30pm - - - - - SE 33 39 18 21 1015.0 1015.0 -
28/10:00pm - - - - - SE 33 39 18 21 1015.1 1015.1 -
28/09:30pm - - - - - SE 32 35 17 19 1015.1 1015.1 -
28/09:00pm - - - - - SE 33 41 18 22 1014.9 1014.9 -
28/08:30pm - - - - - SE 46 54 25 29 1014.6 1014.6 -
28/08:00pm - - - - - SSE 39 48 21 26 1014.3 1014.3 -
28/07:30pm - - - - - SSE 37 44 20 24 1013.9 1013.9 -
28/07:00pm - - - - - SSE 37 43 20 23 1013.4 1013.4 -
28/06:30pm - - - - - SSE 37 41 20 22 1013.4 1013.4 -
28/06:00pm - - - - - SSE 37 43 20 23 1013.2 1013.2 -
28/05:30pm - - - - - SSE 35 44 19 24 1013.1 1013.1 -
28/05:00pm - - - - - SSE 35 41 19 22 1012.9 1012.9 -
28/04:30pm - - - - - SSE 33 39 18 21 1012.7 1012.7 -
28/04:00pm - - - - - SSE 33 39 18 21 1012.7 1012.7 -
28/03:30pm - - - - - SE 32 37 17 20 1012.6 1012.6 -
28/03:00pm - - - - - SE 32 39 17 21 1012.6 1012.6 -
28/02:30pm - - - - - SE 32 37 17 20 1012.4 1012.4 -
28/02:00pm - - - - - SE 30 35 16 19 1012.6 1012.6 -
28/01:30pm - - - - - SE 32 37 17 20 1012.6 1012.6 -
28/01:00pm - - - - - SE 32 37 17 20 1012.9 1012.9 -
28/12:30pm - - - - - SE 33 37 18 20 1013.2 1013.2 -
28/12:00pm - - - - - SE 33 39 18 21 1013.7 1013.7 -
28/11:30am - - - - - SE 33 39 18 21 1014.3 1014.3 -
28/11:00am - - - - - SE 35 41 19 22 1014.6 1014.6 -
28/10:30am - - - - - SE 33 43 18 23 1014.7 1014.7 -
28/10:00am - - - - - SE 35 43 19 23 1014.6 1014.6 -
28/09:30am - - - - - SE 33 43 18 23 1014.4 1014.4 -
28/09:00am - - - - - ESE 35 41 19 22 1014.2 1014.2 -
28/08:30am - - - - - SE 33 39 18 21 1013.9 1013.9 -
28/08:00am - - - - - SE 35 39 19 21 1013.7 1013.7 -
28/07:30am - - - - - ESE 33 39 18 21 1013.3 1013.3 -
28/07:00am - - - - - SE 33 41 18 22 1012.9 1012.9 -
28/06:30am - - - - - SE 35 41 19 22 1012.5 1012.5 -
28/06:00am - - - - - SE 35 43 19 23 1012.2 1012.2 -
28/05:30am - - - - - SE 37 43 20 23 1011.9 1011.9 -
28/05:00am - - - - - SE 33 37 18 20 1012.0 1012.0 -
28/04:30am - - - - - SE 33 39 18 21 1012.1 1012.1 -
28/04:00am - - - - - SE 35 41 19 22 1012.0 1012.0 -
28/03:30am - - - - - SE 33 41 18 22 1012.0 1012.0 -
28/03:00am - - - - - SE 35 41 19 22 1012.0 1012.0 -
28/02:30am - - - - - SE 35 41 19 22 1012.1 1012.1 -
28/02:00am - - - - - ESE 32 41 17 22 1012.5 1012.5 -
28/01:30am - - - - - SE 33 39 18 21 1012.7 1012.7 -
28/01:00am - - - - - SE 32 37 17 20 1013.1 1013.1 -
28/12:30am - - - - - SE 33 39 18 21 1013.3 1013.3 -
28/12:00am - - - - - SE 33 39 18 21 1013.4 1013.4 -
 
Date/Time
EST
Temp
°C
App
Temp
°C
Dew
Point
Rel
Hum
%
Delta-T
°C
Wind Press
QNH
hPa
Press
MSL
hPa
Rain
since 9 am
mm
Dir
 
Spd
km/h
Gust
km/h
Spd
kts
Gust
kts
27/11:30pm - - - - - SE 33 41 18 22 1013.6 1013.6 -
27/11:00pm - - - - - SE 33 37 18 20 1013.6 1013.6 -
27/10:30pm - - - - - SE 35 46 19 25 1013.5 1013.5 -
27/10:00pm - - - - - SE 37 43 20 23 1013.6 1013.6 -
27/09:30pm - - - - - SSE 32 39 17 21 1013.8 1013.8 -
27/09:00pm - - - - - SE 35 43 19 23 1014.0 1014.0 -
27/08:30pm - - - - - SE 32 35 17 19 1013.8 1013.8 -
27/08:00pm - - - - - SSE 22 28 12 15 1013.8 1013.8 -
27/07:30pm - - - - - SSE 33 41 18 22 1013.2 1013.2 -
27/07:18pm - - - - - SSE 33 41 18 22 1013.0 1013.0 -
27/07:00pm - - - - - SE 32 35 17 19 1013.0 1013.0 -
27/06:30pm - - - - - SSE 28 37 15 20 1012.6 1012.6 -
27/06:00pm - - - - - S 28 33 15 18 1012.3 1012.3 -
27/05:30pm - - - - - SSE 28 37 15 20 1012.0 1012.0 -
27/05:00pm - - - - - S 28 41 15 22 1011.4 1011.4 -
27/04:55pm - - - - - S 28 46 15 25 1011.8 1011.8 -
27/04:30pm - - - - - S 33 39 18 21 1011.3 1011.3 -
27/04:00pm - - - - - SSE 32 39 17 21 1011.4 1011.4 -
27/03:30pm - - - - - S 35 41 19 22 1011.3 1011.3 -
27/03:00pm - - - - - S 33 39 18 21 1011.4 1011.4 -
27/02:30pm - - - - - S 33 43 18 23 1011.4 1011.4 -
27/02:00pm - - - - - S 32 39 17 21 1011.7 1011.7 -
27/01:30pm - - - - - S 32 41 17 22 1011.9 1011.9 -
27/01:00pm - - - - - S 33 37 18 20 1012.5 1012.5 -
27/12:30pm - - - - - S 35 41 19 22 1012.5 1012.5 -
27/12:00pm - - - - - S 26 35 14 19 1013.2 1013.2 -
27/11:30am - - - - - S 39 46 21 25 1013.3 1013.3 -
27/11:00am - - - - - SSE 35 41 19 22 1013.7 1013.7 -
27/10:30am - - - - - S 33 44 18 24 1014.2 1014.2 -
27/10:00am - - - - - SSE 35 39 19 21 1014.5 1014.5 -
27/09:30am - - - - - S 35 43 19 23 1014.3 1014.3 -
27/09:00am - - - - - SSE 37 46 20 25 1013.9 1013.9 -
27/08:30am - - - - - SSE 37 44 20 24 1013.9 1013.9 -
27/08:00am - - - - - SSE 37 44 20 24 1013.6 1013.6 -
27/07:30am - - - - - SSE 39 44 21 24 1013.3 1013.3 -
27/07:00am - - - - - SSE 35 44 19 24 1012.9 1012.9 -
27/06:30am - - - - - SSE 37 44 20 24 1012.6 1012.6 -
27/06:00am - - - - - SSE 39 44 21 24 1012.4 1012.4 -
27/05:30am - - - - - SE 39 46 21 25 1011.9 1011.9 -
27/05:00am - - - - - SE 43 54 23 29 1012.0 1012.0 -
27/04:30am - - - - - SSE 39 48 21 26 1011.9 1011.9 -
27/04:02am - - - - - SE 37 57 20 31 1011.8 1011.8 -
27/04:00am - - - - - SE 37 48 20 26 1012.0 1012.0 -
27/03:31am - - - - - SE 44 65 24 35 1011.8 1011.8 -
27/03:30am - - - - - SE 46 65 25 35 1011.8 1011.8 -
27/03:22am - - - - - SSE 43 65 23 35 1011.5 1011.5 -
27/03:00am - - - - - SSE 44 54 24 29 1011.7 1011.7 -
27/02:37am - - - - - SE 41 59 22 32 1012.1 1012.1 -
27/02:30am - - - - - SE 43 59 23 32 1012.2 1012.2 -
27/02:00am - - - - - SSE 41 48 22 26 1012.2 1012.2 -
27/01:30am - - - - - SSE 43 50 23 27 1012.6 1012.6 -
27/01:00am - - - - - SSE 44 52 24 28 1012.8 1012.8 -
27/12:30am - - - - - SSE 41 48 22 26 1013.2 1013.2 -
27/12:00am - - - - - SSE 43 52 23 28 1013.3 1013.3 -
 
Date/Time
EST
Temp
°C
App
Temp
°C
Dew
Point
Rel
Hum
%
Delta-T
°C
Wind Press
QNH
hPa
Press
MSL
hPa
Rain
since 9 am
mm
Dir
 
Spd
km/h
Gust
km/h
Spd
kts
Gust
kts
26/11:30pm - - - - - SSE 44 52 24 28 1013.5 1013.5 -
26/11:00pm - - - - - SE 43 50 23 27 1013.8 1013.8 -
26/10:30pm - - - - - SSE 44 52 24 28 1013.9 1013.9 -
26/10:00pm - - - - - SSE 43 54 23 29 1014.0 1014.0 -
26/09:30pm - - - - - SSE 44 54 24 29 1014.3 1014.3 -
26/09:00pm - - - - - SSE 46 54 25 29 1014.3 1014.3 -
26/08:30pm - - - - - SSE 46 54 25 29 1014.4 1014.4 -

Other Formats:

Comma delimited format used in spreadsheet applications
http://www.bom.gov.au/fwo/IDQ60801/IDQ60801.94284.axf

JavaScript Object Notation format (JSON) in row-major order
http://www.bom.gov.au/fwo/IDQ60801/IDQ60801.94284.json